Time;durP1;ratioP1;P1;durP2;ratioP2;P2;SDS_P1;SDS_P2;PMS_P1;PMS_P2;Temp;Humidity;BMP_temperature;BMP_pressure;BME280_temperature;BME280_humidity;BME280_pressure;Samples;Min_cycle;Max_cycle;Signal;HPM_P1;HPM_P2
2023/08/08 00:02:03;;;;;;;4.07;3.20;;;;;;;15.29;100.00;98114.81;5137097;28;20134;-66
2023/08/08 00:04:29;;;;;;;5.47;2.83;;;;;;;15.44;100.00;98155.97;5137358;28;20083;-71
2023/08/08 00:06:55;;;;;;;5.35;3.10;;;;;;;15.28;100.00;98164.91;5137332;28;20147;-72
2023/08/08 00:09:21;;;;;;;8.60;3.47;;;;;;;15.43;100.00;98184.78;5136958;28;20099;-71
2023/08/08 00:11:48;;;;;;;3.42;3.13;;;;;;;15.02;100.00;98181.09;5137233;28;20137;-68
2023/08/08 00:14:14;;;;;;;7.68;3.15;;;;;;;15.32;100.00;98182.19;5136843;28;20047;-68
2023/08/08 00:16:40;;;;;;;3.42;2.75;;;;;;;15.14;100.00;98198.28;5137113;27;20143;-66
2023/08/08 00:19:06;;;;;;;2.97;2.65;;;;;;;14.78;100.00;98198.81;5136937;28;20051;-66
2023/08/08 00:21:32;;;;;;;3.72;2.92;;;;;;;14.97;100.00;98192.63;5137307;28;20079;-67
2023/08/08 00:23:58;;;;;;;7.72;2.95;;;;;;;15.24;100.00;98197.31;5136781;28;20058;-69
2023/08/08 00:26:24;;;;;;;7.57;2.28;;;;;;;15.02;100.00;98219.72;5137182;27;20206;-71
2023/08/08 00:28:50;;;;;;;2.25;2.05;;;;;;;15.35;100.00;98230.28;5136728;28;20047;-71
2023/08/08 00:31:19;;;;;;;3.42;2.58;;;;;;;15.10;100.00;98255.53;5137246;28;20053;-70
2023/08/08 00:33:45;;;;;;;5.30;3.00;;;;;;;14.96;100.00;98248.22;5136932;27;20093;-70
2023/08/08 00:36:12;;;;;;;5.18;2.85;;;;;;;15.34;100.00;98259.88;5136949;28;20131;-67
2023/08/08 00:38:38;;;;;;;4.97;2.72;;;;;;;14.87;100.00;98267.28;5136877;28;20134;-68
2023/08/08 00:41:04;;;;;;;3.72;2.60;;;;;;;15.14;100.00;98268.06;5136847;28;20082;-66
2023/08/08 00:43:30;;;;;;;7.10;2.65;;;;;;;15.19;100.00;98284.16;5136905;28;20151;-68
2023/08/08 00:45:57;;;;;;;4.43;2.60;;;;;;;15.09;100.00;98289.84;5136748;28;20400;-67
2023/08/08 00:48:23;;;;;;;5.03;2.85;;;;;;;15.33;100.00;98297.00;5136493;27;20439;-71
2023/08/08 00:50:50;;;;;;;4.82;2.80;;;;;;;15.25;100.00;98301.03;5139460;27;20134;-66
2023/08/08 00:53:17;;;;;;;3.67;2.50;;;;;;;15.27;100.00;98307.72;5140277;28;20051;-66
2023/08/08 00:55:43;;;;;;;2.25;2.05;;;;;;;15.16;100.00;98298.81;5140094;28;20149;-70
2023/08/08 00:58:10;;;;;;;2.97;2.15;;;;;;;15.24;100.00;98322.34;5140408;28;20047;-67
2023/08/08 01:00:36;;;;;;;4.90;1.92;;;;;;;14.84;100.00;98326.84;5139846;28;20141;-68
2023/08/08 01:03:03;;;;;;;3.40;1.98;;;;;;;14.93;100.00;98324.38;5140174;28;20059;-65
2023/08/08 01:05:35;;;;;;;3.97;2.20;;;;;;;15.10;100.00;98321.78;5140097;28;20174;-66
2023/08/08 01:08:05;;;;;;;4.97;2.22;;;;;;;15.18;100.00;98326.78;5139995;28;20220;-70
2023/08/08 01:10:36;;;;;;;6.65;2.22;;;;;;;14.68;100.00;98321.91;5139923;27;20549;-66
2023/08/08 01:13:05;;;;;;;4.82;2.00;;;;;;;14.99;100.00;98310.88;5139698;28;20065;-66
2023/08/08 01:15:35;;;;;;;5.07;2.28;;;;;;;14.72;100.00;98328.16;5140131;27;20354;-66
2023/08/08 01:18:03;;;;;;;5.22;2.30;;;;;;;15.10;100.00;98322.56;5139719;28;20051;-68
2023/08/08 01:20:30;;;;;;;4.03;2.03;;;;;;;14.58;100.00;98309.03;5139974;28;20051;-70
2023/08/08 01:23:03;;;;;;;6.30;1.70;;;;;;;14.56;100.00;98309.47;5139624;28;20051;-69
2023/08/08 01:25:31;;;;;;;2.45;1.88;;;;;;;14.82;100.00;98318.97;5140007;27;20134;-66
2023/08/08 01:27:57;;;;;;;8.38;1.85;;;;;;;14.97;100.00;98351.91;5139768;28;20051;-66
2023/08/08 01:30:23;;;;;;;6.10;2.15;;;;;;;14.85;100.00;98342.19;5139437;28;20051;-66
2023/08/08 01:32:49;;;;;;;2.55;1.63;;;;;;;14.77;100.00;98360.81;5139694;28;20062;-68
2023/08/08 01:35:15;;;;;;;3.55;2.50;;;;;;;14.77;100.00;98371.09;5139546;28;20059;-69
2023/08/08 01:37:46;;;;;;;3.17;2.25;;;;;;;14.62;100.00;98358.63;5139478;28;20134;-66
2023/08/08 01:40:15;;;;;;;4.70;2.03;;;;;;;14.61;100.00;98376.38;5139275;28;20043;-71
2023/08/08 01:42:42;;;;;;;5.53;2.17;;;;;;;14.87;100.00;98370.16;5139598;28;20142;-68
2023/08/08 01:45:09;;;;;;;5.50;2.13;;;;;;;14.76;100.00;98373.06;5139234;28;20047;-66
2023/08/08 01:47:35;;;;;;;5.68;2.80;;;;;;;14.83;100.00;98389.53;5139650;28;20116;-69
2023/08/08 01:50:01;;;;;;;3.80;1.90;;;;;;;14.63;100.00;98404.31;5139197;28;20282;-65
2023/08/08 01:52:27;;;;;;;2.70;2.00;;;;;;;14.59;100.00;98423.69;5139547;27;20051;-66
2023/08/08 01:54:53;;;;;;;5.13;1.90;;;;;;;14.79;100.00;98430.19;5139390;28;20054;-69
2023/08/08 01:57:19;;;;;;;2.42;2.17;;;;;;;14.55;100.00;98415.44;5139213;28;20055;-70
2023/08/08 01:59:46;;;;;;;4.57;1.90;;;;;;;14.67;100.00;98413.38;5139289;28;20138;-70
2023/08/08 02:02:12;;;;;;;2.33;2.13;;;;;;;14.69;100.00;98430.28;5138083;27;20137;-70
2023/08/08 02:04:38;;;;;;;3.00;2.28;;;;;;;14.67;100.00;98435.44;5139285;28;20423;-67
2023/08/08 02:07:04;;;;;;;2.63;2.15;;;;;;;14.57;100.00;98437.13;5139003;28;20305;-66
2023/08/08 02:09:30;;;;;;;3.20;2.28;;;;;;;14.71;100.00;98438.94;5139287;28;20119;-70
2023/08/08 02:11:56;;;;;;;4.15;2.47;;;;;;;14.65;100.00;98418.50;5138862;28;20358;-71
2023/08/08 02:14:22;;;;;;;10.70;2.65;;;;;;;14.44;100.00;98458.09;5139066;28;20096;-70
2023/08/08 02:16:48;;;;;;;6.38;2.50;;;;;;;14.45;100.00;98416.31;5138656;28;20043;-66
2023/08/08 02:19:15;;;;;;;4.70;2.13;;;;;;;14.67;100.00;98432.69;5139244;28;20047;-67
2023/08/08 02:21:41;;;;;;;3.88;2.22;;;;;;;14.70;100.00;98451.19;5138534;27;20047;-68
2023/08/08 02:24:07;;;;;;;6.20;3.42;;;;;;;14.81;100.00;98476.66;5138865;28;20065;-70
2023/08/08 02:26:33;;;;;;;2.30;2.03;;;;;;;14.40;100.00;98468.38;5138616;28;20054;-68
2023/08/08 02:28:58;;;;;;;5.32;2.42;;;;;;;14.65;100.00;98476.44;5138778;28;20065;-66
2023/08/08 02:31:24;;;;;;;4.57;2.05;;;;;;;14.66;100.00;98483.50;5139024;28;20108;-65
2023/08/08 02:33:51;;;;;;;10.90;2.80;;;;;;;14.51;100.00;98482.88;5138525;28;20428;-65
2023/08/08 02:36:17;;;;;;;2.88;2.03;;;;;;;14.42;100.00;98501.81;5138837;28;20074;-69
2023/08/08 02:38:44;;;;;;;6.45;2.58;;;;;;;14.00;100.00;98493.47;5138436;28;20143;-69
2023/08/08 02:41:09;;;;;;;5.30;2.35;;;;;;;14.29;100.00;98463.72;5138793;28;20051;-66
2023/08/08 02:43:35;;;;;;;3.35;2.38;;;;;;;14.23;100.00;98470.88;5138327;28;20055;-68
2023/08/08 02:46:01;;;;;;;5.95;3.30;;;;;;;14.33;100.00;98466.47;5138781;27;20138;-71
2023/08/08 02:48:29;;;;;;;8.23;2.70;;;;;;;13.98;100.00;98462.78;5138204;28;20055;-70
2023/08/08 02:50:55;;;;;;;5.60;2.90;;;;;;;14.17;100.00;98464.22;5138678;28;20495;-70
2023/08/08 02:53:21;;;;;;;5.63;2.50;;;;;;;14.15;100.00;98465.81;5138101;28;20137;-68
2023/08/08 02:55:47;;;;;;;3.47;2.67;;;;;;;14.30;100.00;98479.06;5138308;28;20047;-70
2023/08/08 02:58:13;;;;;;;8.85;3.20;;;;;;;14.23;100.00;98489.34;5138423;28;20070;-66
2023/08/08 03:00:39;;;;;;;6.70;3.22;;;;;;;14.17;100.00;98497.28;5138167;28;20054;-66
2023/08/08 03:03:05;;;;;;;5.45;3.40;;;;;;;14.31;100.00;98513.72;5137914;27;20429;-66
2023/08/08 03:05:31;;;;;;;6.97;3.33;;;;;;;14.52;100.00;98528.56;5138065;28;20438;-68
2023/08/08 03:07:58;;;;;;;6.72;3.10;;;;;;;14.29;100.00;98532.63;5138286;28;20079;-69
2023/08/08 03:10:24;;;;;;;8.52;3.92;;;;;;;14.60;100.00;98541.13;5137870;28;20078;-69
2023/08/08 03:12:50;;;;;;;7.25;3.70;;;;;;;14.70;100.00;98572.56;5138004;27;20146;-66
2023/08/08 03:15:16;;;;;;;5.70;3.33;;;;;;;14.63;100.00;98595.47;5137828;28;20413;-68
2023/08/08 03:17:42;;;;;;;6.45;3.75;;;;;;;15.63;100.00;98643.47;5138305;27;20416;-71
2023/08/08 03:20:10;;;;;;;9.45;3.97;;;;;;;15.31;100.00;98663.91;5137615;27;20051;-69
2023/08/08 03:22:36;;;;;;;7.18;3.92;;;;;;;15.69;100.00;98658.41;5137910;28;20142;-67
2023/08/08 03:25:04;;;;;;;10.95;4.05;;;;;;;16.31;100.00;98590.09;5137950;28;20062;-66
2023/08/08 03:27:30;;;;;;;10.02;4.07;;;;;;;16.44;100.00;98442.47;5137607;28;20047;-66
2023/08/08 03:29:56;;;;;;;5.28;3.45;;;;;;;16.67;100.00;98347.59;5137913;27;20074;-69
2023/08/08 03:32:22;;;;;;;10.77;4.40;;;;;;;17.14;100.00;98303.13;5137668;28;20134;-70
2023/08/08 03:34:48;;;;;;;5.45;3.40;;;;;;;17.30;100.00;98119.56;5137947;28;20409;-70
2023/08/08 03:37:14;;;;;;;6.00;3.28;;;;;;;17.35;100.00;98171.66;5137515;28;20054;-68
2023/08/08 03:39:40;;;;;;;6.05;3.15;;;;;;;17.04;100.00;98068.78;5137898;28;20053;-65
2023/08/08 03:42:07;;;;;;;3.83;2.83;;;;;;;16.92;100.00;98156.06;5137461;28;20417;-66
2023/08/08 03:44:33;;;;;;;8.52;4.35;;;;;;;16.82;100.00;98164.63;5137912;28;20142;-68
2023/08/08 03:46:59;;;;;;;6.40;3.65;;;;;;;16.12;100.00;98302.00;5137369;28;20440;-66
2023/08/08 03:49:25;;;;;;;8.85;3.45;;;;;;;15.81;100.00;98463.66;5137837;28;20195;-66
2023/08/08 03:51:51;;;;;;;10.40;5.00;;;;;;;15.96;100.00;98521.06;5137238;28;20051;-70
2023/08/08 03:54:18;;;;;;;7.55;3.17;;;;;;;15.51;100.00;98587.53;5137112;28;20066;-68
2023/08/08 03:56:44;;;;;;;3.03;2.70;;;;;;;15.19;100.00;98632.03;5137381;27;20081;-70
2023/08/08 03:59:11;;;;;;;6.63;2.80;;;;;;;15.48;100.00;98648.34;5137353;27;20078;-69
2023/08/08 04:01:37;;;;;;;9.13;3.05;;;;;;;15.49;100.00;98625.03;5137497;27;20058;-71
2023/08/08 04:04:04;;;;;;;4.47;2.80;;;;;;;15.66;100.00;98610.31;5137108;28;20152;-67
2023/08/08 04:06:30;;;;;;;3.70;2.80;;;;;;;15.62;100.00;98639.13;5137321;28;20046;-70
2023/08/08 04:08:56;;;;;;;4.30;2.97;;;;;;;15.50;100.00;98646.75;5137084;28;20063;-69
2023/08/08 04:11:22;;;;;;;6.10;2.45;;;;;;;15.67;100.00;98641.47;5137498;27;20047;-67
2023/08/08 04:13:48;;;;;;;3.47;2.75;;;;;;;15.66;100.00;98609.47;5137117;28;20051;-67
2023/08/08 04:16:14;;;;;;;5.93;2.97;;;;;;;15.85;100.00;98583.22;5137511;28;20043;-65
2023/08/08 04:18:40;;;;;;;9.27;2.90;;;;;;;15.94;100.00;98597.31;5136874;28;20557;-66
2023/08/08 04:21:06;;;;;;;7.82;4.53;;;;;;;16.14;100.00;98550.44;5137138;28;20063;-66
2023/08/08 04:23:32;;;;;;;6.18;4.07;;;;;;;15.22;100.00;98572.47;5137186;27;20423;-68
2023/08/08 04:25:58;;;;;;;9.73;3.67;;;;;;;15.79;100.00;98618.03;5139943;28;20401;-69
2023/08/08 04:28:24;;;;;;;4.72;3.40;;;;;;;16.12;100.00;98608.91;5140833;28;20043;-70
2023/08/08 04:30:50;;;;;;;7.22;3.00;;;;;;;16.61;100.00;98412.94;5140415;27;20128;-69
2023/08/08 04:33:16;;;;;;;7.15;3.67;;;;;;;17.14;100.00;98166.66;5140723;27;20100;-69
2023/08/08 04:35:42;;;;;;;7.78;3.47;;;;;;;17.68;100.00;97877.81;5140448;28;20138;-70
2023/08/08 04:38:08;;;;;;;9.95;4.53;;;;;;;18.54;100.00;97687.06;5140661;28;20057;-69
2023/08/08 04:40:35;;;;;;;5.78;3.88;;;;;;;18.22;100.00;97588.41;5140337;28;20141;-69
2023/08/08 04:43:01;;;;;;;10.82;4.40;;;;;;;17.58;100.00;97471.59;5140514;27;20086;-66
2023/08/08 04:45:28;;;;;;;9.15;4.60;;;;;;;17.55;100.00;97638.75;5140197;27;20097;-69
2023/08/08 04:47:54;;;;;;;12.45;4.05;;;;;;;16.91;100.00;97802.97;5140591;27;20051;-70
2023/08/08 04:50:21;;;;;;;9.20;4.50;;;;;;;17.00;100.00;97895.69;5140339;27;20138;-69
2023/08/08 04:52:47;;;;;;;7.28;3.88;;;;;;;16.82;100.00;98012.41;5139910;28;20043;-69
2023/08/08 04:55:13;;;;;;;9.68;3.72;;;;;;;16.71;100.00;97951.78;5140311;27;20123;-67
2023/08/08 04:57:39;;;;;;;7.35;3.30;;;;;;;16.44;100.00;98043.34;5139935;28;20416;-66
2023/08/08 05:00:08;;;;;;;6.75;4.38;;;;;;;16.75;100.00;98062.41;5140017;28;20050;-65
2023/08/08 05:02:34;;;;;;;5.90;2.80;;;;;;;16.65;100.00;98128.59;5139740;28;20047;-66
2023/08/08 05:05:00;;;;;;;7.20;3.90;;;;;;;16.61;100.00;98227.53;5140266;27;20047;-66
2023/08/08 05:07:27;;;;;;;5.18;2.45;;;;;;;16.82;100.00;98167.41;5139820;28;20058;-63
2023/08/08 05:09:53;;;;;;;7.15;2.70;;;;;;;17.14;100.00;98167.44;5137901;28;20115;-67
2023/08/08 05:12:19;;;;;;;7.80;3.22;;;;;;;17.24;100.00;98081.75;5139508;28;20046;-63
2023/08/08 05:14:45;;;;;;;4.20;2.55;;;;;;;17.50;100.00;97933.00;5139875;28;20104;-66
2023/08/08 05:17:11;;;;;;;3.92;2.30;;;;;;;17.64;100.00;97821.72;5139297;28;20089;-69
2023/08/08 05:19:37;;;;;;;13.68;2.65;;;;;;;17.68;100.00;97755.88;5139671;28;20108;-67
2023/08/08 05:22:03;;;;;;;13.77;4.20;;;;;;;17.83;100.00;97695.22;5138637;28;20349;-65
2023/08/08 05:24:29;;;;;;;3.33;2.55;;;;;;;18.89;100.00;97514.03;5139639;27;20051;-67
2023/08/08 05:26:55;;;;;;;3.92;2.40;;;;;;;19.18;100.00;97377.47;5139452;27;20150;-64
2023/08/08 05:29:21;;;;;;;7.32;3.40;;;;;;;19.10;100.00;97381.81;5139283;28;20075;-66
2023/08/08 05:31:47;;;;;;;15.32;2.97;;;;;;;18.84;100.00;97350.84;5138320;28;20058;-67
2023/08/08 05:34:13;;;;;;;3.55;2.63;;;;;;;19.03;100.00;97344.03;5139167;28;20456;-74
2023/08/08 05:36:39;;;;;;;10.00;2.60;;;;;;;19.59;100.00;97331.50;5138086;27;20458;-67
2023/08/08 05:39:06;;;;;;;4.90;2.85;;;;;;;20.54;100.00;97368.25;5139166;27;20054;-69
2023/08/08 05:41:33;;;;;;;4.97;2.75;;;;;;;21.19;100.00;97413.03;5139413;28;20425;-67
2023/08/08 05:43:59;;;;;;;6.13;2.47;;;;;;;22.20;100.00;97576.59;5139063;28;20050;-67
2023/08/08 05:46:25;;;;;;;4.15;1.98;;;;;;;22.35;100.00;97635.97;5139446;28;20074;-67
2023/08/08 05:48:51;;;;;;;7.18;2.90;;;;;;;22.36;100.00;97721.28;5139248;28;20069;-66
2023/08/08 05:51:17;;;;;;;7.05;2.58;;;;;;;21.64;100.00;97648.84;5138947;28;20043;-64
2023/08/08 05:53:43;;;;;;;3.58;2.15;;;;;;;20.66;100.00;97607.44;5139098;28;20057;-64
2023/08/08 05:56:08;;;;;;;10.50;3.28;;;;;;;20.81;100.00;97613.09;5138838;28;20129;-64
2023/08/08 05:58:36;;;;;;;6.18;2.58;;;;;;;19.88;100.00;97444.94;5138100;28;20066;-66
2023/08/08 06:01:05;;;;;;;10.20;2.38;;;;;;;19.42;100.00;97395.00;5138740;28;20051;-64
2023/08/08 06:03:31;;;;;;;6.18;2.92;;;;;;;19.24;100.00;97376.38;5138908;28;20408;-64
2023/08/08 06:05:57;;;;;;;4.75;2.83;;;;;;;19.00;100.00;97362.41;5138780;28;20058;-65
2023/08/08 06:08:23;;;;;;;5.90;2.53;;;;;;;18.57;100.00;97363.47;5139148;27;20070;-64
2023/08/08 06:10:49;;;;;;;11.18;2.42;;;;;;;18.42;100.00;97368.09;5138498;28;20130;-66
2023/08/08 06:13:15;;;;;;;6.35;2.70;;;;;;;18.52;100.00;97395.38;5138866;28;20127;-67
2023/08/08 06:15:42;;;;;;;5.75;2.63;;;;;;;18.39;100.00;97416.16;5138445;28;20070;-64
2023/08/08 06:18:08;;;;;;;8.57;2.78;;;;;;;17.76;100.00;97462.59;5138698;28;20055;-64
2023/08/08 06:20:34;;;;;;;8.95;3.70;;;;;;;18.06;100.00;97464.63;5138729;28;20141;-66
2023/08/08 06:23:00;;;;;;;5.35;2.92;;;;;;;18.38;100.00;97429.28;5138364;28;20421;-68
2023/08/08 06:25:26;;;;;;;8.90;5.78;;;;;;;18.51;100.00;97418.03;5138778;28;20058;-68
2023/08/08 06:27:53;;;;;;;12.52;5.20;;;;;;;18.28;100.00;97420.16;5138451;28;20119;-69
2023/08/08 06:30:19;;;;;;;13.65;3.95;;;;;;;18.53;100.00;97449.66;5138421;28;20051;-65
2023/08/08 06:32:45;;;;;;;6.63;4.80;;;;;;;19.06;100.00;97426.44;5137988;28;20098;-63
2023/08/08 06:35:11;;;;;;;11.77;7.78;;;;;;;19.44;100.00;97416.78;5138805;28;20196;-67
2023/08/08 06:37:37;;;;;;;15.00;5.53;;;;;;;19.22;100.00;97409.41;5138170;27;20351;-66
2023/08/08 06:40:06;;;;;;;12.43;6.18;;;;;;;19.54;100.00;97417.53;5138449;28;20312;-70
2023/08/08 06:42:32;;;;;;;16.52;6.65;;;;;;;19.92;100.00;97447.53;5138005;28;20138;-69
2023/08/08 06:44:58;;;;;;;22.98;11.20;;;;;;;20.38;100.00;97548.28;5138611;28;20302;-66
2023/08/08 06:47:24;;;;;;;13.68;7.53;;;;;;;21.00;100.00;97594.28;5137384;27;20450;-66
2023/08/08 06:49:51;;;;;;;17.30;7.32;;;;;;;21.66;100.00;97741.19;5138381;28;20051;-65
2023/08/08 06:52:17;;;;;;;18.00;8.27;;;;;;;21.81;100.00;97778.25;5138053;28;20412;-68
2023/08/08 06:54:43;;;;;;;14.10;5.60;;;;;;;22.98;100.00;97927.13;5137945;28;20100;-67
2023/08/08 06:57:09;;;;;;;15.63;7.63;;;;;;;23.71;100.00;97897.69;5138114;28;20047;-65
2023/08/08 06:59:34;;;;;;;15.63;6.65;;;;;;;22.46;100.00;97939.75;5137760;28;20413;-66
2023/08/08 07:02:00;;;;;;;22.80;6.05;;;;;;;24.15;100.00;97969.59;5138479;28;20050;-66
2023/08/08 07:04:26;;;;;;;11.20;5.93;;;;;;;23.37;100.00;97937.50;5137902;28;20047;-71
2023/08/08 07:06:53;;;;;;;15.25;8.00;;;;;;;23.74;100.00;97979.88;5138326;28;20062;-74
2023/08/08 07:09:19;;;;;;;11.13;5.90;;;;;;;23.43;100.00;97992.28;5137759;27;20051;-71
2023/08/08 07:11:45;;;;;;;11.50;6.22;;;;;;;23.34;100.00;97939.25;5138059;28;20120;-73
2023/08/08 07:14:11;;;;;;;14.43;6.10;;;;;;;23.14;100.00;97927.94;5137769;28;20330;-67
2023/08/08 07:16:37;;;;;;;12.32;5.20;;;;;;;23.24;100.00;97954.56;5137414;28;20043;-65
2023/08/08 07:19:03;;;;;;;9.60;4.40;;;;;;;22.39;100.00;97949.28;5137966;28;20047;-74
2023/08/08 07:21:29;;;;;;;6.95;4.25;;;;;;;21.97;100.00;97902.63;5137671;28;20051;-70
2023/08/08 07:23:57;;;;;;;11.07;4.63;;;;;;;22.03;100.00;97878.44;5137837;28;20182;-67
2023/08/08 07:26:23;;;;;;;10.57;5.18;;;;;;;22.09;100.00;97851.41;5137335;28;20043;-69
2023/08/08 07:28:49;;;;;;;14.05;6.97;;;;;;;22.77;100.00;97881.50;5137866;28;20073;-71
2023/08/08 07:31:14;;;;;;;8.40;4.78;;;;;;;23.27;100.00;97975.97;5137578;28;20142;-74
2023/08/08 07:33:40;;;;;;;14.50;4.82;;;;;;;24.04;100.00;97994.63;5137698;28;20373;-70
2023/08/08 07:36:06;;;;;;;7.47;4.10;;;;;;;24.01;100.00;98028.41;5137513;28;20051;-68
2023/08/08 07:38:33;;;;;;;8.05;3.60;;;;;;;23.38;100.00;98006.94;5137651;27;20088;-69
2023/08/08 07:40:59;;;;;;;10.98;5.72;;;;;;;23.32;100.00;98013.66;5137189;28;20043;-70
2023/08/08 07:43:25;;;;;;;11.35;7.80;;;;;;;24.53;100.00;98021.13;5137917;28;20059;-68
2023/08/08 07:45:51;;;;;;;14.88;5.68;;;;;;;22.77;100.00;97989.69;5137214;28;20087;-70
2023/08/08 07:48:17;;;;;;;11.48;5.85;;;;;;;23.65;100.00;97975.13;5136925;28;20079;-71
2023/08/08 07:50:43;;;;;;;14.38;5.68;;;;;;;24.23;100.00;98028.78;5137287;28;20157;-70
2023/08/08 07:53:09;;;;;;;14.00;5.18;;;;;;;23.97;100.00;98011.06;5136921;28;20051;-71
2023/08/08 07:55:35;;;;;;;11.68;6.75;;;;;;;24.62;100.00;98029.41;5137203;28;20221;-71
2023/08/08 07:58:04;;;;;;;11.40;3.75;;;;;;;24.39;100.00;98101.09;5119214;28;20134;-69
2023/08/08 08:00:30;;;;;;;9.88;5.20;;;;;;;25.81;100.00;98108.16;5136339;28;20094;-73
2023/08/08 08:02:56;;;;;;;13.00;4.70;;;;;;;25.90;100.00;98151.41;5136941;28;20051;-69
2023/08/08 08:05:22;;;;;;;8.70;4.15;;;;;;;25.62;100.00;98168.63;5137164;28;20137;-69
2023/08/08 08:07:48;;;;;;;10.23;4.40;;;;;;;24.67;100.00;98159.63;5119012;28;20047;-65
2023/08/08 08:10:14;;;;;;;8.20;4.47;;;;;;;23.99;100.00;98112.88;5137273;28;20051;-66
2023/08/08 08:12:41;;;;;;;10.80;4.65;;;;;;;23.11;100.00;98066.66;5136747;28;20104;-70
2023/08/08 08:15:09;;;;;;;11.20;3.42;;;;;;;21.83;100.00;97978.66;5136664;28;20058;-66
2023/08/08 08:17:35;;;;;;;5.18;2.75;;;;;;;22.69;100.00;97985.69;5137009;28;20092;-68
2023/08/08 08:20:05;;;;;;;9.30;3.75;;;;;;;21.75;100.00;97971.84;5136853;28;20547;-65
2023/08/08 08:22:31;;;;;;;6.20;4.10;;;;;;;21.66;100.00;97941.19;5136926;28;20058;-70
2023/08/08 08:24:57;;;;;;;6.72;5.10;;;;;;;21.64;100.00;97890.69;5136670;28;20051;-67
2023/08/08 08:27:23;;;;;;;11.50;4.20;;;;;;;21.54;100.00;97901.88;5136951;28;20043;-66
2023/08/08 08:29:49;;;;;;;7.55;4.22;;;;;;;21.27;100.00;97869.25;5118694;28;20047;-66
2023/08/08 08:32:15;;;;;;;10.75;3.78;;;;;;;20.73;100.00;97790.13;5136965;28;20203;-67
2023/08/08 08:34:41;;;;;;;14.05;3.15;;;;;;;21.81;100.00;97781.03;5136518;28;20112;-68
2023/08/08 08:37:08;;;;;;;6.53;2.70;;;;;;;22.20;100.00;97866.88;5136765;27;20091;-68
2023/08/08 08:39:35;;;;;;;16.55;2.95;;;;;;;21.66;100.00;97922.47;5136507;28;20145;-70
2023/08/08 08:42:04;;;;;;;3.28;2.35;;;;;;;23.19;100.00;98123.75;5136846;28;20298;-68
2023/08/08 08:44:31;;;;;;;9.38;2.83;;;;;;;23.24;100.00;98100.72;5136505;28;20089;-69
2023/08/08 08:47:00;;;;;;;8.98;3.10;;;;;;;23.01;100.00;98096.69;5136241;28;20336;-73
2023/08/08 08:49:30;;;;;;;8.13;3.38;;;;;;;22.94;100.00;98069.09;5136581;28;20062;-70
2023/08/08 08:51:56;;;;;;;4.55;2.45;;;;;;;23.40;100.00;98113.50;5136412;28;20103;-66
2023/08/08 08:54:24;;;;;;;7.70;3.25;;;;;;;23.91;100.00;98143.28;5136608;28;20149;-72
2023/08/08 08:56:50;;;;;;;5.68;2.72;;;;;;;24.60;100.00;98157.22;5136339;28;20075;-67
2023/08/08 08:59:16;;;;;;;9.98;3.22;;;;;;;24.71;100.00;98184.66;5137058;28;20408;-66
2023/08/08 09:01:43;;;;;;;7.95;1.70;;;;;;;24.47;100.00;98191.16;5136919;28;20047;-65
2023/08/08 09:04:09;;;;;;;4.70;2.17;;;;;;;24.15;100.00;98173.22;5137776;28;20138;-70
2023/08/08 09:06:38;;;;;;;12.10;2.13;;;;;;;24.07;100.00;98184.03;5136549;28;20051;-71
2023/08/08 09:09:04;;;;;;;6.85;2.20;;;;;;;24.56;100.00;98176.28;5136857;27;20081;-74
2023/08/08 09:11:31;;;;;;;7.38;2.28;;;;;;;23.91;100.00;98173.28;5138743;27;20428;-71
2023/08/08 09:13:57;;;;;;;4.00;2.33;;;;;;;22.62;100.00;98170.41;5139797;28;20133;-66
2023/08/08 09:16:25;;;;;;;4.57;2.83;;;;;;;22.56;100.00;98161.91;5139787;28;20058;-70
2023/08/08 09:18:52;;;;;;;3.63;1.90;;;;;;;22.22;100.00;98102.41;5139832;28;20434;-71
2023/08/08 09:21:19;;;;;;;5.55;2.20;;;;;;;21.69;100.00;98069.31;5139953;28;20046;-71
2023/08/08 09:23:45;;;;;;;4.57;2.80;;;;;;;21.51;100.00;98058.97;5139564;28;20059;-66
2023/08/08 09:26:13;;;;;;;4.57;2.22;;;;;;;21.39;100.00;98012.50;5139671;28;20393;-70
2023/08/08 09:28:39;;;;;;;7.32;3.10;;;;;;;21.08;100.00;98071.91;5139338;28;20047;-66
2023/08/08 09:31:05;;;;;;;5.43;2.55;;;;;;;21.09;100.00;97997.44;5139471;28;20119;-64
2023/08/08 09:33:31;;;;;;;5.18;2.10;;;;;;;20.78;100.00;97976.09;5139298;28;20142;-75
2023/08/08 09:35:57;;;;;;;7.50;2.83;;;;;;;20.86;100.00;97973.78;5139974;28;20057;-69
2023/08/08 09:38:24;;;;;;;5.07;2.30;;;;;;;20.74;100.00;97930.13;5139303;27;20058;-71
2023/08/08 09:40:51;;;;;;;4.82;2.00;;;;;;;20.47;100.00;97889.88;5139353;28;20139;-66
2023/08/08 09:43:17;;;;;;;5.30;2.13;;;;;;;20.22;100.00;97780.38;5139125;28;20051;-69
2023/08/08 09:45:44;;;;;;;4.22;1.85;;;;;;;20.08;100.00;97677.28;5139124;28;20051;-68
2023/08/08 09:48:10;;;;;;;11.38;2.58;;;;;;;19.68;100.00;97578.91;5139169;28;20529;-67
2023/08/08 09:50:36;;;;;;;7.68;2.10;;;;;;;19.43;100.00;97532.75;5138959;28;20184;-65
2023/08/08 09:53:03;;;;;;;8.68;3.42;;;;;;;19.37;100.00;97540.16;5139115;28;20187;-71
2023/08/08 09:55:29;;;;;;;4.93;2.53;;;;;;;19.34;100.00;97655.00;5138945;28;20133;-73
2023/08/08 09:57:57;;;;;;;6.80;3.30;;;;;;;19.53;100.00;97733.63;5139157;28;20051;-72
2023/08/08 10:00:25;;;;;;;7.90;2.72;;;;;;;19.66;100.00;97734.28;5138813;28;20512;-67
2023/08/08 10:02:51;;;;;;;4.47;2.53;;;;;;;19.61;100.00;97789.69;5139238;28;20115;-67
2023/08/08 10:05:17;;;;;;;5.78;2.60;;;;;;;19.80;100.00;97705.13;5120706;28;20146;-68
2023/08/08 10:07:44;;;;;;;3.30;2.20;;;;;;;19.80;100.00;97613.34;5138370;27;20047;-70
2023/08/08 10:10:10;;;;;;;8.07;2.53;;;;;;;19.91;100.00;97665.72;5139035;28;20078;-70
2023/08/08 10:12:37;;;;;;;11.50;3.47;;;;;;;19.67;100.00;97602.38;5138473;28;20134;-67
2023/08/08 10:15:07;;;;;;;7.32;2.78;;;;;;;19.46;100.00;97537.38;5103975;28;20188;-70
2023/08/08 10:17:36;;;;;;;5.38;2.65;;;;;;;19.13;100.00;97603.88;5138225;28;20051;-69
2023/08/08 10:20:11;;;;;;;8.38;2.53;;;;;;;19.74;100.00;97585.38;5138900;28;20047;-67
2023/08/08 10:22:38;;;;;;;6.05;2.78;;;;;;;19.95;100.00;97633.72;5120724;28;20062;-72
2023/08/08 10:25:06;;;;;;;12.48;3.00;;;;;;;20.65;100.00;97619.81;5138783;28;20323;-66
2023/08/08 10:27:33;;;;;;;6.57;3.70;;;;;;;20.97;100.00;97619.53;5138559;28;20047;-71
2023/08/08 10:30:04;;;;;;;25.25;4.50;;;;;;;21.16;100.00;97646.03;5138645;28;20074;-73
2023/08/08 10:32:38;;;;;;;13.07;2.75;;;;;;;21.37;100.00;97739.00;5138339;28;20078;-67
2023/08/08 10:35:07;;;;;;;6.47;2.78;;;;;;;21.40;100.00;97756.81;5138527;28;20141;-66
2023/08/08 10:37:32;;;;;;;6.03;2.45;;;;;;;20.70;100.00;97848.78;5137934;27;20047;-68
2023/08/08 10:39:59;;;;;;;11.80;2.75;;;;;;;20.59;100.00;97807.44;5138262;28;20128;-68
2023/08/08 10:42:27;;;;;;;9.00;2.10;;;;;;;20.32;100.00;97839.59;5138357;28;20316;-70
2023/08/08 10:44:55;;;;;;;6.88;2.17;;;;;;;19.69;100.00;97830.69;5120293;28;20495;-70
2023/08/08 10:47:26;;;;;;;6.35;2.42;;;;;;;19.93;100.00;97746.69;5120251;28;20210;-69
2023/08/08 10:49:59;;;;;;;6.13;2.50;;;;;;;19.62;100.00;97733.63;5137947;28;20130;-68
2023/08/08 10:52:26;;;;;;;11.50;4.47;;;;;;;19.67;100.00;97651.66;5138301;28;20059;-63
2023/08/08 10:54:54;;;;;;;8.23;3.67;;;;;;;19.52;100.00;97604.19;5137608;28;20055;-67
2023/08/08 10:57:24;;;;;;;4.13;2.15;;;;;;;18.85;100.00;97658.56;5137934;28;20051;-63
2023/08/08 10:59:50;;;;;;;8.63;3.20;;;;;;;18.95;100.00;97698.22;5137943;28;20047;-69
2023/08/08 11:02:18;;;;;;;6.63;2.22;;;;;;;18.90;100.00;97715.50;5137935;28;20051;-71
2023/08/08 11:04:45;;;;;;;10.05;3.75;;;;;;;19.23;100.00;97660.22;5137705;28;20050;-65
2023/08/08 11:07:11;;;;;;;12.02;4.57;;;;;;;19.25;100.00;97683.50;5137563;27;20061;-69
2023/08/08 11:09:37;;;;;;;5.88;3.10;;;;;;;19.30;100.00;97623.03;5138122;28;20317;-67
2023/08/08 11:12:04;;;;;;;4.05;2.20;;;;;;;18.77;100.00;97665.63;5119952;28;20143;-68
2023/08/08 11:14:30;;;;;;;6.85;2.67;;;;;;;18.84;100.00;97692.34;5138448;28;20055;-70
2023/08/08 11:16:56;;;;;;;4.95;2.70;;;;;;;18.80;100.00;97709.91;5137519;28;20116;-66
2023/08/08 11:19:23;;;;;;;8.23;3.80;;;;;;;18.88;100.00;97724.28;5137470;28;20433;-65
2023/08/08 11:21:50;;;;;;;10.30;5.10;;;;;;;18.76;100.00;97761.22;5137411;28;20099;-67